KNBG/NBG METAR and TAF weather

Enter ICAO airport designator
Station Type Date Time Source
KNBG METAR 2019/08/26 06:55 UTC NOAA

KNBG 260655Z AUTO 16006KT 10SM -RA OVC100 26/26 A2988 RMK AO2 SLP119 P0000 T02560256 $


Station Type Date Time Source
KNBG Decoded METAR 2019/08/26 06:55 UTC NOAA

Station name not available
Aug 26, 2019 - 02:55 AM EDT / 2019.08.26 0655 UTC
Wind: from the SSE (160 degrees) at 7 MPH (6 KT):0
Visibility: 10 mile(s):0
Sky conditions: overcast
Weather: light rain
Precipitation last hour: A trace
Temperature: 78.1 F (25.6 C)
Dew Point: 78.1 F (25.6 C)
Relative Humidity: 100%
Pressure (altimeter): 29.88 in. Hg (1011 hPa)
ob: KNBG 260655Z AUTO 16006KT 10SM -RA OVC100 26/26 A2988 RMK AO2 SLP119 P0000 T02560256
cycle: 7

Station Type Date Time Source
KNBG TAF 2019/08/26 23:18 UTC NOAA

TAF TAF
AMD KNBG 2523/2623 VRB06KT 8000 -SHRA VCTS FEW010CB SCT100 QNH2984INS
TEMPO 2602/2604 VRB20G30KT 1600 TSRA BR BKN015CB BKN100 OVC200
BECMG 2611/2613 16007KT 6000 RA BR VCTS BKN012CB OVC080 QNH2985INS
TEMPO 2615/2618 VRB25G35KT 1600 TSRA BR BKN010 BKN025CB OVC100
BECMG 2621/2623 21009KT 9999 NSW SCT025 BKN070 BKN250 QNH2986 AUTOMATED SENSOR METWATCH 2522 TIL 2610 T22/2611Z T29/2620Z
AMD 0212 FN00204

Example: see airport list